Time;durP1;ratioP1;P1;durP2;ratioP2;P2;SDS_P1;SDS_P2;PMS_P1;PMS_P2;Temp;Humidity;BMP_temperature;BMP_pressure;BME280_temperature;BME280_humidity;BME280_pressure;Samples;Min_cycle;Max_cycle;Signal;HPM_P1;HPM_P2
2022/10/09 00:00:37;;;;;;;11.15;4.28;;;;;;;;;;5086588;28;20082;-68
2022/10/09 00:03:02;;;;;;;8.50;3.97;;;;;;;;;;5080035;28;20398;-69
2022/10/09 00:05:28;;;;;;;12.23;4.13;;;;;;;;;;5084745;28;20037;-64
2022/10/09 00:07:53;;;;;;;6.93;3.85;;;;;;;;;;5079472;28;20032;-62
2022/10/09 00:10:19;;;;;;;9.63;4.35;;;;;;;;;;5079823;28;20148;-63
2022/10/09 00:12:45;;;;;;;10.40;3.80;;;;;;;;;;5077706;28;20489;-63
2022/10/09 00:15:10;;;;;;;11.80;4.38;;;;;;;;;;5080431;28;20078;-65
2022/10/09 00:17:36;;;;;;;10.48;4.45;;;;;;;;;;5077408;28;20388;-63
2022/10/09 00:20:02;;;;;;;7.45;4.18;;;;;;;;;;5076519;28;20383;-62
2022/10/09 00:22:28;;;;;;;6.38;4.25;;;;;;;;;;5077055;28;20066;-64
2022/10/09 00:24:53;;;;;;;9.50;4.32;;;;;;;;;;5080408;28;20043;-63
2022/10/09 00:27:21;;;;;;;11.45;4.38;;;;;;;;;;5081185;28;20036;-63
2022/10/09 00:29:47;;;;;;;10.70;4.45;;;;;;;;;;5075765;28;20110;-63
2022/10/09 00:32:12;;;;;;;14.48;4.63;;;;;;;;;;5075962;28;20043;-59
2022/10/09 00:34:37;;;;;;;10.63;4.28;;;;;;;;;;5081894;28;20499;-59
2022/10/09 00:37:03;;;;;;;14.27;4.47;;;;;;;;;;5082599;28;20048;-57
2022/10/09 00:39:28;;;;;;;12.65;4.35;;;;;;;;;;5081113;28;20042;-57
2022/10/09 00:41:53;;;;;;;11.18;4.00;;;;;;;;;;5078770;28;20482;-58
2022/10/09 00:44:58;;;;;;;9.18;4.15;;;;;;;;;;5084938;28;20088;-58
2022/10/09 00:47:34;;;;;;;10.45;4.13;;;;;;;;;;5082490;28;20040;-64
2022/10/09 00:50:18;;;;;;;7.10;3.78;;;;;;;;;;5078612;28;20198;-64
2022/10/09 00:52:45;;;;;;;7.82;3.42;;;;;;;;;;5079666;28;20085;-64
2022/10/09 00:55:12;;;;;;;10.15;3.55;;;;;;;;;;5083720;28;20407;-63
2022/10/09 00:57:39;;;;;;;9.85;4.10;;;;;;;;;;5079281;28;20518;-60
2022/10/09 01:00:08;;;;;;;6.35;3.60;;;;;;;;;;5081983;28;20055;-61
2022/10/09 01:02:33;;;;;;;7.57;3.47;;;;;;;;;;5080870;28;20052;-57
2022/10/09 01:04:59;;;;;;;7.07;3.10;;;;;;;;;;5075764;28;20483;-55
2022/10/09 01:07:34;;;;;;;7.90;3.47;;;;;;;;;;5080247;28;20268;-66
2022/10/09 01:10:12;;;;;;;7.85;2.97;;;;;;;;;;5077626;28;20056;-68
2022/10/09 01:13:06;;;;;;;9.02;3.30;;;;;;;;;;5081001;28;20086;-68
2022/10/09 01:15:48;;;;;;;8.90;3.78;;;;;;;;;;5043531;28;20055;-62
2022/10/09 01:18:21;;;;;;;8.93;2.85;;;;;;;;;;5079853;28;20032;-65
2022/10/09 01:21:09;;;;;;;6.72;3.30;;;;;;;;;;5081196;28;20462;-56
2022/10/09 01:24:19;;;;;;;5.18;2.90;;;;;;;;;;5084228;28;20036;-58
2022/10/09 01:27:03;;;;;;;6.90;2.92;;;;;;;;;;5083159;28;20040;-61
2022/10/09 01:29:43;;;;;;;10.88;3.30;;;;;;;;;;5080034;28;20122;-61
2022/10/09 01:32:11;;;;;;;6.90;2.88;;;;;;;;;;5080421;28;20052;-64
2022/10/09 01:34:38;;;;;;;7.40;2.88;;;;;;;;;;5081572;28;20056;-63
2022/10/09 01:37:05;;;;;;;8.32;3.38;;;;;;;;;;5084197;28;20154;-68
2022/10/09 01:39:33;;;;;;;5.18;3.08;;;;;;;;;;5082936;28;20028;-68
2022/10/09 01:41:58;;;;;;;7.32;3.05;;;;;;;;;;5076528;28;20557;-69
2022/10/09 01:44:29;;;;;;;9.38;3.08;;;;;;;;;;5079848;28;20078;-68
2022/10/09 01:46:56;;;;;;;7.55;2.92;;;;;;;;;;5078551;28;20044;-59
2022/10/09 01:49:36;;;;;;;7.07;3.03;;;;;;;;;;5079321;28;23217;-60
2022/10/09 01:52:20;;;;;;;6.97;2.92;;;;;;;;;;5082141;28;20105;-64
2022/10/09 01:55:07;;;;;;;8.30;3.38;;;;;;;;;;5080711;28;20119;-64
2022/10/09 01:57:45;;;;;;;7.75;3.28;;;;;;;;;;5079674;28;20024;-66
2022/10/09 02:00:11;;;;;;;10.65;3.30;;;;;;;;;;5080609;28;20063;-68
2022/10/09 02:02:38;;;;;;;6.55;3.25;;;;;;;;;;5080245;28;20442;-57
2022/10/09 02:05:04;;;;;;;6.70;2.90;;;;;;;;;;5078089;28;20040;-57
2022/10/09 02:07:31;;;;;;;9.52;3.10;;;;;;;;;;5080579;28;20040;-68
2022/10/09 02:10:01;;;;;;;6.13;3.30;;;;;;;;;;5083344;28;20036;-68
2022/10/09 02:12:30;;;;;;;8.07;2.92;;;;;;;;;;5082591;28;20639;-63
2022/10/09 02:14:56;;;;;;;8.00;2.30;;;;;;;;;;5081174;28;20056;-61
2022/10/09 02:17:28;;;;;;;6.53;3.05;;;;;;;;;;5080958;28;20040;-62
2022/10/09 02:20:00;;;;;;;4.82;2.72;;;;;;;;;;5094911;28;20056;-61
2022/10/09 02:22:29;;;;;;;5.28;2.65;;;;;;;;;;5081118;28;20471;-58
2022/10/09 02:24:57;;;;;;;5.85;2.60;;;;;;;;;;5083203;28;20547;-58
2022/10/09 02:27:23;;;;;;;7.55;2.85;;;;;;;;;;5081472;28;20142;-69
2022/10/09 02:29:49;;;;;;;6.70;2.50;;;;;;;;;;5080952;28;20045;-69
2022/10/09 02:32:15;;;;;;;7.68;2.42;;;;;;;;;;5077849;28;20047;-59
2022/10/09 02:34:41;;;;;;;11.70;2.95;;;;;;;;;;5077447;28;20052;-62
2022/10/09 02:37:07;;;;;;;9.00;2.70;;;;;;;;;;5077471;28;20048;-68
2022/10/09 02:39:32;;;;;;;7.43;2.92;;;;;;;;;;5079696;28;20020;-68
2022/10/09 02:41:58;;;;;;;9.82;3.03;;;;;;;;;;5075761;28;20043;-60
2022/10/09 02:44:23;;;;;;;6.20;2.55;;;;;;;;;;5082962;28;20044;-60
2022/10/09 02:46:49;;;;;;;5.25;2.50;;;;;;;;;;5079130;28;20152;-62
2022/10/09 02:49:14;;;;;;;8.95;2.80;;;;;;;;;;5081428;28;20410;-63
2022/10/09 02:51:39;;;;;;;6.45;3.08;;;;;;;;;;5077392;28;20679;-68
2022/10/09 02:54:05;;;;;;;8.43;2.97;;;;;;;;;;5084184;28;20032;-69
2022/10/09 02:56:30;;;;;;;7.78;2.80;;;;;;;;;;5076938;28;20059;-69
2022/10/09 02:58:56;;;;;;;5.97;2.50;;;;;;;;;;5083656;28;20123;-68
2022/10/09 03:01:22;;;;;;;5.05;2.45;;;;;;;;;;5079419;28;20048;-68
2022/10/09 03:03:48;;;;;;;3.85;2.40;;;;;;;;;;5080031;28;20382;-67
2022/10/09 03:06:17;;;;;;;6.00;2.50;;;;;;;;;;5081263;28;20020;-58
2022/10/09 03:08:44;;;;;;;11.80;2.60;;;;;;;;;;5079344;28;20083;-55
2022/10/09 03:11:11;;;;;;;5.70;2.75;;;;;;;;;;5077400;28;20036;-62
2022/10/09 03:13:38;;;;;;;6.80;2.40;;;;;;;;;;5078489;28;20048;-62
2022/10/09 03:16:05;;;;;;;9.45;3.00;;;;;;;;;;5080695;28;20051;-62
2022/10/09 03:18:30;;;;;;;7.75;2.58;;;;;;;;;;5082040;28;20047;-63
2022/10/09 03:20:56;;;;;;;8.30;2.58;;;;;;;;;;5087525;28;20368;-61
2022/10/09 03:23:22;;;;;;;5.57;2.47;;;;;;;;;;5082898;28;20044;-61
2022/10/09 03:26:01;;;;;;;9.13;2.72;;;;;;;;;;5084080;28;20035;-63
2022/10/09 03:28:27;;;;;;;6.72;2.22;;;;;;;;;;5085104;28;20044;-64
2022/10/09 03:30:52;;;;;;;5.43;2.25;;;;;;;;;;5084784;28;20056;-68
2022/10/09 03:33:18;;;;;;;4.00;2.22;;;;;;;;;;5080241;28;20096;-69
2022/10/09 03:35:46;;;;;;;7.18;2.20;;;;;;;;;;5084643;28;20455;-61
2022/10/09 03:38:11;;;;;;;7.05;2.10;;;;;;;;;;5084978;28;20451;-60
2022/10/09 03:40:37;;;;;;;5.88;2.22;;;;;;;;;;5082826;28;20090;-57
2022/10/09 03:43:02;;;;;;;8.07;2.10;;;;;;;;;;5083020;28;20208;-57
2022/10/09 03:45:28;;;;;;;6.43;2.15;;;;;;;;;;5085292;28;20093;-61
2022/10/09 03:47:53;;;;;;;4.15;2.00;;;;;;;;;;5084954;28;20542;-61
2022/10/09 03:50:18;;;;;;;3.92;2.00;;;;;;;;;;5080571;28;20402;-61
2022/10/09 03:52:44;;;;;;;5.28;2.10;;;;;;;;;;5081445;28;20044;-62
2022/10/09 03:55:09;;;;;;;3.60;2.15;;;;;;;;;;5081986;28;20541;-60
2022/10/09 03:57:35;;;;;;;3.20;1.80;;;;;;;;;;5079911;28;20024;-60
2022/10/09 04:00:00;;;;;;;7.72;2.00;;;;;;;;;;5082177;28;20489;-58
2022/10/09 04:02:26;;;;;;;6.32;1.90;;;;;;;;;;5081416;28;20055;-58
2022/10/09 04:04:51;;;;;;;5.85;2.10;;;;;;;;;;5080740;28;20487;-56
2022/10/09 04:07:17;;;;;;;6.68;2.08;;;;;;;;;;5081074;28;20067;-68
2022/10/09 04:09:42;;;;;;;5.35;1.90;;;;;;;;;;5083208;28;20056;-69
2022/10/09 04:12:08;;;;;;;6.28;2.03;;;;;;;;;;5084951;28;20284;-69
2022/10/09 04:14:33;;;;;;;7.28;2.05;;;;;;;;;;5085475;28;20048;-69
2022/10/09 04:16:59;;;;;;;5.32;2.20;;;;;;;;;;5083686;28;20048;-61
2022/10/09 04:19:24;;;;;;;6.85;1.90;;;;;;;;;;5079996;27;20052;-61
2022/10/09 04:21:49;;;;;;;6.13;2.10;;;;;;;;;;5083702;28;20048;-69
2022/10/09 04:24:15;;;;;;;3.45;2.03;;;;;;;;;;5084803;28;20085;-69
2022/10/09 04:26:40;;;;;;;6.82;2.38;;;;;;;;;;5080617;28;20040;-67
2022/10/09 04:29:06;;;;;;;8.68;2.97;;;;;;;;;;5080437;28;20459;-68
2022/10/09 04:31:31;;;;;;;9.13;3.47;;;;;;;;;;5081451;28;20044;-64
2022/10/09 04:33:57;;;;;;;11.32;3.45;;;;;;;;;;5082511;28;20044;-63
2022/10/09 04:36:23;;;;;;;9.38;3.58;;;;;;;;;;5085320;28;20028;-69
2022/10/09 04:38:48;;;;;;;8.68;3.40;;;;;;;;;;5079342;28;20037;-68
2022/10/09 04:41:13;;;;;;;8.40;4.20;;;;;;;;;;5085006;28;20308;-64
2022/10/09 04:43:39;;;;;;;13.88;4.80;;;;;;;;;;5075408;28;20554;-62
2022/10/09 04:46:06;;;;;;;9.40;4.30;;;;;;;;;;5084165;28;20295;-66
2022/10/09 04:48:37;;;;;;;12.13;4.03;;;;;;;;;;5081355;28;20119;-67
2022/10/09 04:51:05;;;;;;;8.25;3.75;;;;;;;;;;5083077;28;20062;-63
2022/10/09 04:53:30;;;;;;;9.10;3.60;;;;;;;;;;5081382;28;20032;-63
2022/10/09 04:55:56;;;;;;;12.40;4.78;;;;;;;;;;5079341;28;20051;-61
2022/10/09 04:58:21;;;;;;;5.80;2.83;;;;;;;;;;5081274;28;20052;-62
2022/10/09 05:00:47;;;;;;;9.80;4.05;;;;;;;;;;5083001;27;20128;-63
2022/10/09 05:03:13;;;;;;;12.13;3.55;;;;;;;;;;5085457;28;20024;-63
2022/10/09 05:05:38;;;;;;;7.80;3.88;;;;;;;;;;5082520;28;20117;-67
2022/10/09 05:08:04;;;;;;;8.35;3.20;;;;;;;;;;5084409;28;20059;-68
2022/10/09 05:10:32;;;;;;;4.97;3.08;;;;;;;;;;5081827;28;20186;-70
2022/10/09 05:12:58;;;;;;;8.40;3.42;;;;;;;;;;5084355;28;20457;-69
2022/10/09 05:15:24;;;;;;;6.32;2.92;;;;;;;;;;5083172;28;20032;-64
2022/10/09 05:17:49;;;;;;;8.20;3.25;;;;;;;;;;5077924;28;20032;-64
2022/10/09 05:20:15;;;;;;;7.82;2.75;;;;;;;;;;5084008;28;20190;-63
2022/10/09 05:22:43;;;;;;;8.48;3.15;;;;;;;;;;5083556;28;20491;-62
2022/10/09 05:25:08;;;;;;;4.65;2.65;;;;;;;;;;5079715;28;20079;-62
2022/10/09 05:27:34;;;;;;;6.68;2.72;;;;;;;;;;5083410;28;20411;-62
2022/10/09 05:29:59;;;;;;;5.75;2.67;;;;;;;;;;5083027;28;20093;-62
2022/10/09 05:32:25;;;;;;;4.32;2.55;;;;;;;;;;5081433;28;20074;-67
2022/10/09 05:34:50;;;;;;;5.90;2.45;;;;;;;;;;5083938;28;20069;-67
2022/10/09 05:37:15;;;;;;;4.95;2.60;;;;;;;;;;5079390;28;20044;-60
2022/10/09 05:39:41;;;;;;;8.70;3.38;;;;;;;;;;5076089;28;20035;-60
2022/10/09 05:42:06;;;;;;;7.68;2.70;;;;;;;;;;5075467;28;20487;-62
2022/10/09 05:44:32;;;;;;;4.15;2.42;;;;;;;;;;5072940;28;20163;-62
2022/10/09 05:46:57;;;;;;;6.95;3.13;;;;;;;;;;5078513;28;20157;-57
2022/10/09 05:49:23;;;;;;;8.38;2.70;;;;;;;;;;5077957;28;20041;-57
2022/10/09 05:51:48;;;;;;;9.52;2.92;;;;;;;;;;5079602;28;20052;-66
2022/10/09 05:54:16;;;;;;;6.78;3.30;;;;;;;;;;5077170;28;20027;-66
2022/10/09 05:56:43;;;;;;;8.85;3.15;;;;;;;;;;5077731;28;20048;-68
2022/10/09 05:59:14;;;;;;;11.02;3.78;;;;;;;;;;5080777;28;20044;-67
2022/10/09 06:01:42;;;;;;;13.98;5.07;;;;;;;;;;5072926;28;20054;-61
2022/10/09 06:04:12;;;;;;;9.32;3.35;;;;;;;;;;5074911;28;20807;-61
2022/10/09 06:06:39;;;;;;;6.90;3.40;;;;;;;;;;5080550;28;20024;-68
2022/10/09 06:09:06;;;;;;;7.68;3.28;;;;;;;;;;5079727;28;20443;-68
2022/10/09 06:11:34;;;;;;;5.88;3.00;;;;;;;;;;5080510;28;20063;-59
2022/10/09 06:14:01;;;;;;;6.60;3.55;;;;;;;;;;5074816;28;20047;-59
2022/10/09 06:16:29;;;;;;;8.43;3.70;;;;;;;;;;5075338;28;20040;-66
2022/10/09 06:18:55;;;;;;;5.95;3.50;;;;;;;;;;5075583;28;20040;-65
2022/10/09 06:21:21;;;;;;;9.07;3.60;;;;;;;;;;5081617;28;20437;-61
2022/10/09 06:23:51;;;;;;;9.80;3.88;;;;;;;;;;5074405;28;20137;-61
2022/10/09 06:26:18;;;;;;;9.70;3.53;;;;;;;;;;5075859;28;20514;-62
2022/10/09 06:28:44;;;;;;;6.72;3.33;;;;;;;;;;5076261;28;20475;-62
2022/10/09 06:31:18;;;;;;;9.75;3.28;;;;;;;;;;5076040;28;20102;-65
2022/10/09 06:33:45;;;;;;;7.82;3.88;;;;;;;;;;5082223;28;20043;-66
2022/10/09 06:36:19;;;;;;;7.68;3.65;;;;;;;;;;5078557;28;20035;-69
2022/10/09 06:38:45;;;;;;;7.13;3.65;;;;;;;;;;5076253;28;20067;-68
2022/10/09 06:41:19;;;;;;;7.78;3.75;;;;;;;;;;5075786;28;20063;-64
2022/10/09 06:43:58;;;;;;;7.95;3.20;;;;;;;;;;5074138;28;20044;-63
2022/10/09 06:46:26;;;;;;;9.35;3.58;;;;;;;;;;5077382;28;20044;-73
2022/10/09 06:48:51;;;;;;;8.35;3.70;;;;;;;;;;5082351;28;20044;-72
2022/10/09 06:51:20;;;;;;;5.60;3.03;;;;;;;;;;5076498;28;20036;-72
2022/10/09 06:53:50;;;;;;;7.20;3.47;;;;;;;;;;5080639;28;20044;-71
2022/10/09 06:56:17;;;;;;;5.50;3.35;;;;;;;;;;5078215;28;20044;-58
2022/10/09 06:58:42;;;;;;;8.20;3.50;;;;;;;;;;5075820;28;20047;-55
2022/10/09 07:01:14;;;;;;;5.85;4.30;;;;;;;;;;5075840;28;20196;-73
2022/10/09 07:03:42;;;;;;;6.28;3.65;;;;;;;;;;5075090;28;20051;-73
2022/10/09 07:06:19;;;;;;;6.38;4.00;;;;;;;;;;5079514;28;20035;-69
2022/10/09 07:08:47;;;;;;;7.25;3.88;;;;;;;;;;5073645;28;20621;-69
2022/10/09 07:11:15;;;;;;;5.15;3.72;;;;;;;;;;5078099;28;20044;-74
2022/10/09 07:13:42;;;;;;;5.78;3.75;;;;;;;;;;5074196;28;20405;-73
2022/10/09 07:16:08;;;;;;;7.97;3.58;;;;;;;;;;5079419;28;20047;-64
2022/10/09 07:18:34;;;;;;;6.60;3.78;;;;;;;;;;5075865;28;20313;-65
2022/10/09 07:21:06;;;;;;;6.90;3.70;;;;;;;;;;5080917;28;20086;-69
2022/10/09 07:23:32;;;;;;;7.63;3.67;;;;;;;;;;5072812;28;20059;-68
2022/10/09 07:25:59;;;;;;;7.35;3.95;;;;;;;;;;5075271;28;20162;-68
2022/10/09 07:28:27;;;;;;;5.63;3.83;;;;;;;;;;5074168;28;20113;-68
2022/10/09 07:30:53;;;;;;;7.78;3.92;;;;;;;;;;5078542;28;20411;-73
2022/10/09 07:33:18;;;;;;;9.07;4.10;;;;;;;;;;5074691;28;20031;-72
2022/10/09 07:35:54;;;;;;;7.03;3.97;;;;;;;;;;5081311;28;20548;-63
2022/10/09 07:38:19;;;;;;;7.38;3.88;;;;;;;;;;5080385;28;20044;-63
2022/10/09 07:40:44;;;;;;;8.25;4.18;;;;;;;;;;5075155;28;20101;-63
2022/10/09 07:43:10;;;;;;;7.00;4.20;;;;;;;;;;5077325;28;20407;-63
2022/10/09 07:45:35;;;;;;;7.85;3.88;;;;;;;;;;5080920;28;20032;-72
2022/10/09 07:48:00;;;;;;;7.57;4.05;;;;;;;;;;5079907;28;20031;-73
2022/10/09 07:50:26;;;;;;;8.88;4.22;;;;;;;;;;5080374;28;20047;-73
2022/10/09 07:52:51;;;;;;;7.43;3.90;;;;;;;;;;5078957;28;20452;-73
2022/10/09 07:55:16;;;;;;;6.85;3.50;;;;;;;;;;5077979;28;20087;-73
2022/10/09 07:57:43;;;;;;;7.53;3.83;;;;;;;;;;5074541;28;20024;-72
2022/10/09 08:00:10;;;;;;;8.40;3.60;;;;;;;;;;5079912;28;20391;-72
2022/10/09 08:02:35;;;;;;;5.60;3.35;;;;;;;;;;5077212;28;20336;-73
2022/10/09 08:05:01;;;;;;;4.38;3.17;;;;;;;;;;5086808;28;20054;-72
2022/10/09 08:07:26;;;;;;;6.65;3.15;;;;;;;;;;5079611;28;20035;-72
2022/10/09 08:09:52;;;;;;;5.88;3.40;;;;;;;;;;5083313;28;20101;-71
2022/10/09 08:12:17;;;;;;;7.35;4.20;;;;;;;;;;5077487;28;20030;-60
2022/10/09 08:14:42;;;;;;;8.45;3.58;;;;;;;;;;5077590;28;20047;-59
2022/10/09 08:17:08;;;;;;;5.45;3.45;;;;;;;;;;5081177;28;20047;-67
2022/10/09 08:19:36;;;;;;;5.72;3.05;;;;;;;;;;5082145;28;20043;-67
2022/10/09 08:22:01;;;;;;;9.23;2.97;;;;;;;;;;5079798;28;20063;-67
2022/10/09 08:24:27;;;;;;;8.60;2.53;;;;;;;;;;5081521;28;20016;-67
2022/10/09 08:26:52;;;;;;;6.10;2.38;;;;;;;;;;5085259;28;20083;-60
2022/10/09 08:29:20;;;;;;;7.47;2.42;;;;;;;;;;5075162;28;20048;-60
2022/10/09 08:31:45;;;;;;;4.90;2.20;;;;;;;;;;5080249;28;20044;-67
2022/10/09 08:34:11;;;;;;;7.00;2.40;;;;;;;;;;5085529;28;20097;-66
2022/10/09 08:36:36;;;;;;;8.32;2.10;;;;;;;;;;5082706;28;20583;-71
2022/10/09 08:39:02;;;;;;;6.72;1.95;;;;;;;;;;5085950;28;20055;-72
2022/10/09 08:41:31;;;;;;;3.97;1.50;;;;;;;;;;5083213;28;20060;-62
2022/10/09 08:44:03;;;;;;;9.00;1.80;;;;;;;;;;5085542;28;20494;-63
2022/10/09 08:46:39;;;;;;;4.47;1.55;;;;;;;;;;5081830;28;20040;-60
2022/10/09 08:49:07;;;;;;;6.78;1.98;;;;;;;;;;5084902;28;20095;-60
2022/10/09 08:51:37;;;;;;;5.47;2.15;;;;;;;;;;5081664;28;20053;-62
2022/10/09 08:54:14;;;;;;;3.45;1.27;;;;;;;;;;5082085;28;20078;-63
2022/10/09 08:56:39;;;;;;;5.07;1.80;;;;;;;;;;5083939;28;20047;-63
2022/10/09 08:59:05;;;;;;;4.30;1.55;;;;;;;;;;5080783;28;20061;-63
2022/10/09 09:01:38;;;;;;;5.82;1.90;;;;;;;;;;5078069;28;20106;-60
2022/10/09 09:04:12;;;;;;;5.10;2.22;;;;;;;;;;5077532;28;23159;-60
2022/10/09 09:06:51;;;;;;;13.20;3.55;;;;;;;;;;5078426;28;20119;-65
2022/10/09 09:09:57;;;;;;;5.95;1.90;;;;;;;;;;5077447;28;20639;-65
2022/10/09 09:12:40;;;;;;;7.18;1.70;;;;;;;;;;5077211;28;20072;-71
2022/10/09 09:15:08;;;;;;;7.80;2.03;;;;;;;;;;5076419;28;20402;-71
2022/10/09 09:17:37;;;;;;;4.18;1.90;;;;;;;;;;5080581;28;20040;-65
2022/10/09 09:20:02;;;;;;;10.45;2.05;;;;;;;;;;5083418;28;20048;-65
2022/10/09 09:22:29;;;;;;;5.75;2.17;;;;;;;;;;5083424;28;20042;-63
2022/10/09 09:24:56;;;;;;;4.60;1.75;;;;;;;;;;5079517;28;20500;-63
2022/10/09 09:27:29;;;;;;;7.45;2.10;;;;;;;;;;5078666;28;20125;-67
2022/10/09 09:30:06;;;;;;;5.45;2.10;;;;;;;;;;5082739;28;20040;-70
2022/10/09 09:32:32;;;;;;;5.28;2.20;;;;;;;;;;5082461;28;20036;-59
2022/10/09 09:35:11;;;;;;;8.45;2.10;;;;;;;;;;5078889;28;20110;-59
2022/10/09 09:37:36;;;;;;;6.28;2.00;;;;;;;;;;5080113;28;20039;-59
2022/10/09 09:40:03;;;;;;;5.22;2.00;;;;;;;;;;5081685;28;20051;-58
2022/10/09 09:42:28;;;;;;;10.98;2.10;;;;;;;;;;5080916;28;20032;-64
2022/10/09 09:44:59;;;;;;;6.50;2.67;;;;;;;;;;5080549;28;20036;-65
2022/10/09 09:47:47;;;;;;;6.03;2.30;;;;;;;;;;5077545;28;20460;-63
2022/10/09 09:50:13;;;;;;;6.10;1.95;;;;;;;;;;5076011;28;20403;-63
2022/10/09 09:52:42;;;;;;;6.43;2.03;;;;;;;;;;5078614;28;20048;-72
2022/10/09 09:55:23;;;;;;;7.13;2.20;;;;;;;;;;5082032;28;20481;-72
2022/10/09 09:57:48;;;;;;;6.00;1.70;;;;;;;;;;5075817;28;20087;-60
2022/10/09 10:00:22;;;;;;;8.77;2.15;;;;;;;;;;5074142;28;20477;-60
2022/10/09 10:02:49;;;;;;;3.33;1.67;;;;;;;;;;5075984;28;20153;-63
2022/10/09 10:05:26;;;;;;;8.38;2.00;;;;;;;;;;5073315;28;20719;-62
2022/10/09 10:07:52;;;;;;;6.10;1.65;;;;;;;;;;5090712;27;20075;-62
2022/10/09 10:10:23;;;;;;;5.65;2.33;;;;;;;;;;5075380;28;20753;-63
2022/10/09 10:12:55;;;;;;;3.60;1.75;;;;;;;;;;5076368;28;20151;-63
2022/10/09 10:15:32;;;;;;;2.38;1.65;;;;;;;;;;5078630;28;20034;-65
2022/10/09 10:18:13;;;;;;;6.85;1.88;;;;;;;;;;5078484;28;20159;-61
2022/10/09 10:21:03;;;;;;;4.03;1.83;;;;;;;;;;5075785;28;20036;-62
2022/10/09 10:23:54;;;;;;;5.60;2.05;;;;;;;;;;5076870;28;20055;-61
2022/10/09 10:26:33;;;;;;;3.75;1.52;;;;;;;;;;5067823;28;20067;-64
2022/10/09 10:29:17;;;;;;;7.45;1.73;;;;;;;;;;5077222;28;20465;-65
2022/10/09 10:32:01;;;;;;;7.25;1.58;;;;;;;;;;5075217;28;20048;-58
2022/10/09 10:34:48;;;;;;;5.53;1.75;;;;;;;;;;5078042;28;20120;-57
2022/10/09 10:37:13;;;;;;;4.28;1.50;;;;;;;;;;5078000;28;20050;-58
2022/10/09 10:39:45;;;;;;;4.18;2.08;;;;;;;;;;5075377;28;20032;-57
2022/10/09 10:42:38;;;;;;;7.72;1.70;;;;;;;;;;5080242;28;20117;-64
2022/10/09 10:45:19;;;;;;;5.68;1.65;;;;;;;;;;5056630;28;20099;-63
2022/10/09 10:47:52;;;;;;;3.20;1.40;;;;;;;;;;5076542;28;20629;-64
2022/10/09 10:50:18;;;;;;;4.13;1.30;;;;;;;;;;5080284;28;20043;-64
2022/10/09 10:53:13;;;;;;;7.43;1.75;;;;;;;;;;5077012;28;20084;-64
2022/10/09 10:55:54;;;;;;;8.77;1.60;;;;;;;;;;5079813;28;20491;-61
2022/10/09 10:58:23;;;;;;;5.97;1.35;;;;;;;;;;5080510;28;20046;-62
2022/10/09 11:01:26;;;;;;;11.20;1.73;;;;;;;;;;5078433;28;20048;-65
2022/10/09 11:04:20;;;;;;;5.43;1.60;;;;;;;;;;5070719;28;20045;-65
2022/10/09 11:07:10;;;;;;;9.70;1.67;;;;;;;;;;5075698;28;20147;-65
2022/10/09 11:09:55;;;;;;;9.88;1.80;;;;;;;;;;5078255;28;20028;-65
2022/10/09 11:12:36;;;;;;;4.63;1.52;;;;;;;;;;5079202;28;20027;-62
2022/10/09 11:15:21;;;;;;;2.67;1.23;;;;;;;;;;5077282;28;20048;-64
2022/10/09 11:18:18;;;;;;;4.85;1.48;;;;;;;;;;5059666;28;20422;-58
2022/10/09 11:21:00;;;;;;;4.50;1.55;;;;;;;;;;5075678;28;20036;-57
2022/10/09 11:23:25;;;;;;;3.53;1.40;;;;;;;;;;5080039;28;20071;-58
2022/10/09 11:26:28;;;;;;;3.40;1.67;;;;;;;;;;5075064;28;20270;-63
2022/10/09 11:29:23;;;;;;;4.85;1.45;;;;;;;;;;5070039;28;20505;-63
2022/10/09 11:32:04;;;;;;;3.83;1.20;;;;;;;;;;5078469;28;20312;-60
2022/10/09 11:34:35;;;;;;;3.72;1.30;;;;;;;;;;5082992;28;20047;-60
2022/10/09 11:37:07;;;;;;;7.40;1.42;;;;;;;;;;5079798;28;20048;-57
2022/10/09 11:39:33;;;;;;;5.05;1.40;;;;;;;;;;5080032;28;20107;-57
2022/10/09 11:41:59;;;;;;;3.30;1.30;;;;;;;;;;5081267;28;20086;-65
2022/10/09 11:44:28;;;;;;;4.18;1.30;;;;;;;;;;5077460;28;20036;-64
2022/10/09 11:47:08;;;;;;;2.63;1.33;;;;;;;;;;5080712;28;20047;-57
2022/10/09 11:50:02;;;;;;;3.60;1.30;;;;;;;;;;5081745;28;20051;-58
2022/10/09 11:52:46;;;;;;;5.68;1.20;;;;;;;;;;5083818;28;20040;-61
2022/10/09 11:55:20;;;;;;;7.97;1.35;;;;;;;;;;5081227;28;20443;-60
2022/10/09 11:57:46;;;;;;;3.55;1.23;;;;;;;;;;5079591;28;20070;-61
2022/10/09 12:00:13;;;;;;;4.65;1.35;;;;;;;;;;5079808;28;20665;-61
2022/10/09 12:02:40;;;;;;;2.88;1.10;;;;;;;;;;5080707;28;20121;-62
2022/10/09 12:05:42;;;;;;;3.17;1.23;;;;;;;;;;5080689;28;20475;-61
2022/10/09 12:08:12;;;;;;;5.28;1.25;;;;;;;;;;5073779;28;20047;-66
2022/10/09 12:10:41;;;;;;;2.15;0.95;;;;;;;;;;5084351;28;20070;-74
2022/10/09 12:13:26;;;;;;;3.00;1.08;;;;;;;;;;5081884;28;20049;-74
2022/10/09 12:15:54;;;;;;;1.60;0.98;;;;;;;;;;5080363;28;20040;-60
2022/10/09 12:18:32;;;;;;;2.33;0.90;;;;;;;;;;5079672;28;20062;-62
2022/10/09 12:21:01;;;;;;;3.22;1.08;;;;;;;;;;5078526;28;20052;-55
2022/10/09 12:23:30;;;;;;;1.77;1.00;;;;;;;;;;5081963;28;20134;-59
2022/10/09 12:25:57;;;;;;;4.70;1.23;;;;;;;;;;5080788;28;20048;-66
2022/10/09 12:28:22;;;;;;;6.03;1.00;;;;;;;;;;5083835;28;20047;-64
2022/10/09 12:30:50;;;;;;;2.42;0.98;;;;;;;;;;5081155;28;20055;-64
2022/10/09 12:33:29;;;;;;;2.15;0.85;;;;;;;;;;5085736;28;20043;-64
2022/10/09 12:36:19;;;;;;;2.25;1.00;;;;;;;;;;5081947;28;20045;-74
2022/10/09 12:38:45;;;;;;;1.95;1.00;;;;;;;;;;5074318;28;20064;-72
2022/10/09 12:41:20;;;;;;;3.00;1.25;;;;;;;;;;5079623;28;20148;-75
2022/10/09 12:43:48;;;;;;;5.40;0.98;;;;;;;;;;5081498;28;20041;-72
2022/10/09 12:46:23;;;;;;;4.70;1.00;;;;;;;;;;5078693;28;20041;-61
2022/10/09 12:48:49;;;;;;;3.33;1.00;;;;;;;;;;5076133;28;20044;-61
2022/10/09 12:51:25;;;;;;;3.65;1.13;;;;;;;;;;5080646;28;20032;-66
2022/10/09 12:53:52;;;;;;;3.00;1.20;;;;;;;;;;5078518;28;20047;-64
2022/10/09 12:56:23;;;;;;;2.42;1.15;;;;;;;;;;5077676;28;20535;-62
2022/10/09 12:58:49;;;;;;;3.80;1.50;;;;;;;;;;5076956;28;20098;-66
2022/10/09 13:01:16;;;;;;;9.02;1.40;;;;;;;;;;5085482;28;20043;-64
2022/10/09 13:04:03;;;;;;;4.18;1.20;;;;;;;;;;5075686;28;20509;-65
2022/10/09 13:06:36;;;;;;;4.22;1.05;;;;;;;;;;5072518;28;20066;-65
2022/10/09 13:09:05;;;;;;;1.13;0.80;;;;;;;;;;5080723;28;20070;-66
2022/10/09 13:11:41;;;;;;;3.45;1.30;;;;;;;;;;5085375;28;20059;-67
2022/10/09 13:14:23;;;;;;;2.47;1.08;;;;;;;;;;5079860;28;20060;-67
2022/10/09 13:16:49;;;;;;;2.85;0.90;;;;;;;;;;5077563;28;20487;-67
2022/10/09 13:19:24;;;;;;;1.33;0.80;;;;;;;;;;5078161;28;20067;-67
2022/10/09 13:22:05;;;;;;;1.58;0.93;;;;;;;;;;5082153;28;20141;-64
2022/10/09 13:24:30;;;;;;;3.97;1.08;;;;;;;;;;5080744;28;20537;-63
2022/10/09 13:26:55;;;;;;;4.15;1.00;;;;;;;;;;5080585;28;20111;-64
2022/10/09 13:29:21;;;;;;;1.65;0.80;;;;;;;;;;5076452;28;20096;-64
2022/10/09 13:31:46;;;;;;;2.55;0.80;;;;;;;;;;5076929;28;20052;-55
2022/10/09 13:34:13;;;;;;;1.80;0.90;;;;;;;;;;5079563;28;20051;-56
2022/10/09 13:36:39;;;;;;;1.98;0.80;;;;;;;;;;5073834;28;20032;-71
2022/10/09 13:39:04;;;;;;;3.05;0.90;;;;;;;;;;5075670;28;20062;-67
2022/10/09 13:41:30;;;;;;;1.63;0.80;;;;;;;;;;5081795;28;20431;-67
2022/10/09 13:43:56;;;;;;;1.80;0.70;;;;;;;;;;5076697;28;20166;-69
2022/10/09 13:46:21;;;;;;;2.50;1.30;;;;;;;;;;5076945;28;20576;-62
2022/10/09 13:48:47;;;;;;;3.78;1.10;;;;;;;;;;5076541;28;20630;-60
2022/10/09 13:51:12;;;;;;;4.63;1.13;;;;;;;;;;5080006;28;20045;-60
2022/10/09 13:53:37;;;;;;;2.05;0.70;;;;;;;;;;5077760;28;20052;-60
2022/10/09 13:56:03;;;;;;;1.50;0.73;;;;;;;;;;5072981;28;20044;-65
2022/10/09 13:58:30;;;;;;;4.18;1.00;;;;;;;;;;5078463;28;20048;-67
2022/10/09 14:00:55;;;;;;;2.63;0.80;;;;;;;;;;5074250;28;20870;-58
2022/10/09 14:03:21;;;;;;;2.30;0.60;;;;;;;;;;5077771;28;20132;-59
2022/10/09 14:05:46;;;;;;;3.53;0.70;;;;;;;;;;5078638;28;20036;-62
2022/10/09 14:08:11;;;;;;;1.13;0.73;;;;;;;;;;5082831;28;20453;-61
2022/10/09 14:10:41;;;;;;;2.17;0.80;;;;;;;;;;5077146;28;21351;-61
2022/10/09 14:13:07;;;;;;;2.45;0.90;;;;;;;;;;5078260;28;20040;-62
2022/10/09 14:15:33;;;;;;;5.30;1.30;;;;;;;;;;5073967;28;20028;-66
2022/10/09 14:17:58;;;;;;;1.40;0.90;;;;;;;;;;5074237;28;20038;-65
2022/10/09 14:20:25;;;;;;;4.20;1.08;;;;;;;;;;5077220;28;20052;-62
2022/10/09 14:22:51;;;;;;;3.13;1.75;;;;;;;;;;5080375;28;20135;-63
2022/10/09 14:25:16;;;;;;;2.03;1.20;;;;;;;;;;5080402;28;20032;-62
2022/10/09 14:27:42;;;;;;;1.95;1.15;;;;;;;;;;5076741;28;20028;-62
2022/10/09 14:30:08;;;;;;;3.88;1.77;;;;;;;;;;5078965;28;20036;-63
2022/10/09 14:32:33;;;;;;;2.83;1.00;;;;;;;;;;5079047;28;20052;-65
2022/10/09 14:34:58;;;;;;;5.10;2.40;;;;;;;;;;5073021;28;20048;-66
2022/10/09 14:37:24;;;;;;;3.03;2.00;;;;;;;;;;5072433;28;20381;-56
2022/10/09 14:39:51;;;;;;;3.15;1.98;;;;;;;;;;5072379;28;20071;-55
2022/10/09 14:42:16;;;;;;;1.52;1.10;;;;;;;;;;5074518;28;20595;-61
2022/10/09 14:44:42;;;;;;;2.40;0.70;;;;;;;;;;5074974;28;20036;-59
2022/10/09 14:47:07;;;;;;;2.00;1.50;;;;;;;;;;5073465;28;20089;-67
2022/10/09 14:49:32;;;;;;;4.97;2.50;;;;;;;;;;5077399;28;20053;-67
2022/10/09 14:51:58;;;;;;;6.55;3.30;;;;;;;;;;5075327;28;20051;-54
2022/10/09 14:54:23;;;;;;;9.63;3.30;;;;;;;;;;5077644;28;20035;-58
2022/10/09 14:56:49;;;;;;;3.30;2.10;;;;;;;;;;5072372;28;20036;-61
2022/10/09 14:59:14;;;;;;;2.28;1.92;;;;;;;;;;5071921;28;20135;-58